createdAt,value
2019-01-04T00:00:31.428Z,8.40
2019-01-04T00:03:00.894Z,8.67
2019-01-04T00:05:30.489Z,8.83
2019-01-04T00:07:59.967Z,8.47
2019-01-04T00:10:29.419Z,10.93
2019-01-04T00:12:58.845Z,7.87
2019-01-04T00:15:28.286Z,11.20
2019-01-04T00:17:57.860Z,8.20
2019-01-04T00:20:27.385Z,7.87
2019-01-04T00:22:56.895Z,8.37
2019-01-04T00:25:26.335Z,9.47
2019-01-04T00:27:55.866Z,9.70
2019-01-04T00:30:25.397Z,8.53
2019-01-04T00:32:55.017Z,7.93
2019-01-04T00:35:24.582Z,9.57
2019-01-04T00:37:54.228Z,8.87
2019-01-04T00:40:23.927Z,9.70
2019-01-04T00:42:53.540Z,7.83
2019-01-04T00:45:23.070Z,10.63
2019-01-04T00:47:52.533Z,11.10
2019-01-04T00:50:22.045Z,9.27
2019-01-04T00:52:51.558Z,9.00
2019-01-04T00:55:28.551Z,8.37
2019-01-04T00:58:05.136Z,8.77
2019-01-04T01:01:03.107Z,8.73
2019-01-04T01:03:54.957Z,9.67
2019-01-04T01:07:16.470Z,9.20
2019-01-04T01:10:36.989Z,7.80
2019-01-04T01:13:38.116Z,7.80
2019-01-04T01:16:17.667Z,7.93
2019-01-04T01:19:20.943Z,8.80
2019-01-04T01:22:14.012Z,7.83
2019-01-04T01:25:12.064Z,7.60
2019-01-04T01:28:03.937Z,10.50
2019-01-04T01:34:01.198Z,9.30
2019-01-04T01:36:40.681Z,8.53
2019-01-04T01:39:51.135Z,8.87
2019-01-04T01:43:05.711Z,9.23
2019-01-04T01:45:54.965Z,8.77
2019-01-04T01:48:26.828Z,10.53
2019-01-04T01:51:21.857Z,10.33
2019-01-04T01:53:51.328Z,9.07
2019-01-04T01:56:20.768Z,11.10
2019-01-04T01:58:50.211Z,9.10
2019-01-04T02:01:19.685Z,10.37
2019-01-04T02:03:49.189Z,9.20
2019-01-04T02:06:18.643Z,8.90
2019-01-04T02:08:48.132Z,8.87
2019-01-04T02:11:17.653Z,9.80
2019-01-04T02:13:47.183Z,8.33
2019-01-04T02:16:16.647Z,9.57
2019-01-04T02:18:46.092Z,8.67
2019-01-04T02:21:15.626Z,8.87
2019-01-04T02:23:45.054Z,9.03
2019-01-04T02:26:14.497Z,9.23
2019-01-04T02:28:43.928Z,9.30
2019-01-04T02:31:13.394Z,11.20
2019-01-04T02:33:42.920Z,10.17
2019-01-04T02:36:12.403Z,9.40
2019-01-04T02:38:41.847Z,9.97
2019-01-04T02:41:11.269Z,8.93
2019-01-04T02:43:40.741Z,9.10
2019-01-04T02:46:10.182Z,9.57
2019-01-04T02:48:39.643Z,11.13
2019-01-04T02:51:09.130Z,8.90
2019-01-04T02:53:38.599Z,12.87
2019-01-04T02:56:07.998Z,9.03
2019-01-04T02:58:37.415Z,11.40
2019-01-04T03:01:07.540Z,10.10
2019-01-04T03:03:36.966Z,10.00
2019-01-04T03:06:06.397Z,10.43
2019-01-04T03:08:35.835Z,8.73
2019-01-04T03:11:05.266Z,8.63
2019-01-04T03:13:34.680Z,10.50
2019-01-04T03:16:04.218Z,8.93
2019-01-04T03:18:33.657Z,9.23
2019-01-04T03:21:03.115Z,10.20
2019-01-04T03:23:32.611Z,12.17
2019-01-04T03:26:02.124Z,10.07
2019-01-04T03:28:31.582Z,10.87
2019-01-04T03:31:01.183Z,11.37
2019-01-04T03:33:30.627Z,10.30
2019-01-04T03:36:00.073Z,11.93
2019-01-04T03:38:29.556Z,10.23
2019-01-04T03:40:59.191Z,11.73
2019-01-04T03:43:28.619Z,13.03
2019-01-04T03:45:58.113Z,13.23
2019-01-04T03:48:27.717Z,12.27
2019-01-04T03:50:57.319Z,13.87
2019-01-04T03:53:26.774Z,12.80
2019-01-04T03:55:56.224Z,12.70
2019-01-04T03:58:25.659Z,15.07
2019-01-04T04:00:55.149Z,12.23
2019-01-04T04:03:24.621Z,11.80
2019-01-04T04:05:54.096Z,13.90
2019-01-04T04:08:23.568Z,14.60
2019-01-04T04:10:52.998Z,13.80
2019-01-04T04:13:22.632Z,16.20
2019-01-04T04:15:52.128Z,15.53
2019-01-04T04:18:21.569Z,13.93
2019-01-04T04:20:50.969Z,12.30
2019-01-04T04:23:20.452Z,12.87
2019-01-04T04:25:49.977Z,12.93
2019-01-04T04:28:19.424Z,13.07
2019-01-04T04:30:48.932Z,12.33
2019-01-04T04:33:18.375Z,13.47
2019-01-04T04:35:47.827Z,12.90
2019-01-04T04:38:17.300Z,13.33
2019-01-04T04:40:46.778Z,12.50
2019-01-04T04:43:16.227Z,12.37
2019-01-04T04:45:45.674Z,12.63
2019-01-04T04:48:15.171Z,12.63
2019-01-04T04:50:44.645Z,11.77
2019-01-04T04:53:14.336Z,11.23
2019-01-04T04:55:43.770Z,11.40
2019-01-04T04:58:13.336Z,12.30
2019-01-04T05:00:42.796Z,11.67
2019-01-04T05:03:12.243Z,11.80
2019-01-04T05:05:41.710Z,12.90
2019-01-04T05:08:11.175Z,13.43
2019-01-04T05:10:40.609Z,11.53
2019-01-04T05:13:10.102Z,13.13
2019-01-04T05:15:39.550Z,14.80
2019-01-04T05:18:09.011Z,12.73
2019-01-04T05:20:38.490Z,13.33
2019-01-04T05:23:07.937Z,13.13
2019-01-04T05:25:37.382Z,12.67
2019-01-04T05:28:06.872Z,13.27
2019-01-04T05:30:36.321Z,11.87
2019-01-04T05:33:05.759Z,13.87
2019-01-04T05:35:35.231Z,13.43
2019-01-04T05:38:04.697Z,13.37
2019-01-04T05:40:34.142Z,14.17
2019-01-04T05:43:03.612Z,13.60
2019-01-04T05:45:33.074Z,13.20
2019-01-04T05:48:02.495Z,15.33
2019-01-04T05:50:31.981Z,14.40
2019-01-04T05:53:01.446Z,14.97
2019-01-04T05:55:30.886Z,15.87
2019-01-04T05:58:00.318Z,17.13
2019-01-04T06:00:29.804Z,16.90
2019-01-04T06:02:59.275Z,16.77
2019-01-04T06:05:28.703Z,18.47
2019-01-04T06:07:58.169Z,17.93
2019-01-04T06:10:27.633Z,20.27
2019-01-04T06:12:57.091Z,19.10
2019-01-04T06:15:26.569Z,19.47
2019-01-04T06:17:56.017Z,20.47
2019-01-04T06:20:25.479Z,20.97
2019-01-04T06:22:54.966Z,19.47
2019-01-04T06:25:24.411Z,22.53
2019-01-04T06:27:53.858Z,22.67
2019-01-04T06:30:23.356Z,21.47
2019-01-04T06:32:52.806Z,22.17
2019-01-04T06:35:22.268Z,22.67
2019-01-04T06:37:51.818Z,23.87
2019-01-04T06:40:21.352Z,22.67
2019-01-04T06:42:50.800Z,24.17
2019-01-04T06:45:20.347Z,23.60
2019-01-04T06:47:49.795Z,23.13
2019-01-04T06:50:19.266Z,22.57
2019-01-04T06:52:48.745Z,24.23
2019-01-04T06:55:22.810Z,24.87
2019-01-04T06:57:52.262Z,25.60
2019-01-04T07:00:21.741Z,26.20
2019-01-04T07:02:51.208Z,26.80
2019-01-04T07:05:20.658Z,26.00
2019-01-04T07:07:50.128Z,27.30
2019-01-04T07:10:19.564Z,27.60
2019-01-04T07:12:49.008Z,28.13
2019-01-04T07:15:18.585Z,25.10
2019-01-04T07:17:48.027Z,28.10
2019-01-04T07:20:17.496Z,26.57
2019-01-04T07:22:46.986Z,27.80
2019-01-04T07:25:16.445Z,26.53
2019-01-04T07:27:45.953Z,27.40
2019-01-04T07:30:15.603Z,26.43
2019-01-04T07:32:45.043Z,28.30
2019-01-04T07:35:14.582Z,30.13
2019-01-04T07:37:44.204Z,23.13
2019-01-04T07:40:14.184Z,27.20
2019-01-04T07:42:43.662Z,25.83
2019-01-04T07:45:13.183Z,27.90
2019-01-04T07:47:42.622Z,26.97
2019-01-04T07:50:12.281Z,27.90
2019-01-04T07:52:41.825Z,25.97
2019-01-04T07:55:11.400Z,25.67
2019-01-04T07:57:40.899Z,27.73
2019-01-04T08:00:12.657Z,29.53
2019-01-04T08:02:44.262Z,29.47
2019-01-04T08:05:19.406Z,30.73
2019-01-04T08:07:48.902Z,33.63
2019-01-04T08:10:18.338Z,32.13
2019-01-04T08:12:47.833Z,32.00
2019-01-04T08:15:17.359Z,33.87
2019-01-04T08:17:46.823Z,36.33
2019-01-04T08:20:16.302Z,30.27
2019-01-04T08:22:45.944Z,38.33
2019-01-04T08:25:15.686Z,36.50
2019-01-04T08:27:45.137Z,31.00
2019-01-04T08:30:14.831Z,30.73
2019-01-04T08:32:44.301Z,30.47
2019-01-04T08:35:13.963Z,33.50
2019-01-04T08:37:43.495Z,34.33
2019-01-04T08:40:13.183Z,30.73
2019-01-04T08:42:42.801Z,31.80
2019-01-04T08:45:12.264Z,31.77
2019-01-04T08:47:41.876Z,31.07
2019-01-04T08:50:11.583Z,28.70
2019-01-04T08:52:41.096Z,30.40
2019-01-04T08:55:10.961Z,29.17
2019-01-04T08:57:40.405Z,26.13
2019-01-04T09:00:13.147Z,26.97
2019-01-04T09:02:42.613Z,28.10
2019-01-04T09:05:12.118Z,26.47
2019-01-04T09:07:41.704Z,24.47
2019-01-04T09:10:11.343Z,27.40
2019-01-04T09:12:40.842Z,23.73
2019-01-04T09:15:10.555Z,20.77
2019-01-04T09:17:40.021Z,23.47
2019-01-04T09:20:10.356Z,19.80
2019-01-04T09:22:40.050Z,21.07
2019-01-04T09:25:10.123Z,18.27
2019-01-04T09:30:11.792Z,16.40
2019-01-04T09:32:41.295Z,14.53
2019-01-04T09:35:10.784Z,14.93
2019-01-04T09:37:40.319Z,11.80
2019-01-04T10:14:56.770Z,14.13
2019-01-04T10:17:26.220Z,11.37
2019-01-04T10:19:55.674Z,11.97
2019-01-04T10:22:25.140Z,12.13
2019-01-04T10:24:54.740Z,12.83
2019-01-04T10:27:24.351Z,14.80
2019-01-04T10:29:54.039Z,12.87
2019-01-04T10:32:23.601Z,13.43
2019-01-04T10:34:53.135Z,13.83
2019-01-04T10:37:22.699Z,12.90
2019-01-04T10:39:52.225Z,16.20
2019-01-04T10:42:21.888Z,17.70
2019-01-04T10:44:51.378Z,15.07
2019-01-04T10:47:20.827Z,18.80
2019-01-04T10:49:50.287Z,18.80
2019-01-04T10:52:19.749Z,19.93
2019-01-04T10:54:49.232Z,20.13
2019-01-04T10:57:18.728Z,20.77
2019-01-04T10:59:48.210Z,20.33
2019-01-04T11:02:17.680Z,20.63
2019-01-04T11:04:47.168Z,21.10
2019-01-04T11:07:16.592Z,24.27
2019-01-04T11:09:46.059Z,24.93
2019-01-04T11:12:15.977Z,22.90
2019-01-04T11:14:45.407Z,25.67
2019-01-04T11:17:14.855Z,26.03
2019-01-04T11:19:44.345Z,25.40
2019-01-04T11:22:51.700Z,24.83
2019-01-04T11:25:37.795Z,28.87
2019-01-04T11:28:18.366Z,28.27
2019-01-04T11:30:55.612Z,29.40
2019-01-04T11:33:36.105Z,32.60
2019-01-04T11:36:37.086Z,34.80
2019-01-04T11:39:13.957Z,31.37
2019-01-04T11:42:03.007Z,32.70
2019-01-04T11:45:11.894Z,35.30
2019-01-04T11:47:48.894Z,33.70
2019-01-04T11:50:59.998Z,33.43
2019-01-04T11:53:29.633Z,36.57
2019-01-04T11:55:59.117Z,33.50
2019-01-04T11:58:28.563Z,35.27
2019-01-04T12:00:58.048Z,34.70
2019-01-04T12:03:27.502Z,35.53
2019-01-04T12:05:56.983Z,36.57
2019-01-04T12:08:26.478Z,35.20
2019-01-04T12:10:55.950Z,38.87
2019-01-04T12:13:25.524Z,39.00
2019-01-04T12:15:55.078Z,36.90
2019-01-04T12:18:24.585Z,36.53
2019-01-04T12:20:54.128Z,39.53
2019-01-04T12:23:23.658Z,35.30
2019-01-04T12:25:53.156Z,37.10
2019-01-04T12:28:22.641Z,37.93
2019-01-04T12:30:52.231Z,37.37
2019-01-04T12:33:24.375Z,38.90
2019-01-04T12:35:53.842Z,37.73
2019-01-04T12:38:23.361Z,37.70
2019-01-04T12:40:52.945Z,35.70
2019-01-04T12:43:22.418Z,38.77
2019-01-04T12:45:51.955Z,35.63
2019-01-04T12:48:21.426Z,36.10
2019-01-04T12:50:50.970Z,37.47
2019-01-04T12:53:20.449Z,37.40
2019-01-04T12:55:50.051Z,36.20
2019-01-04T12:58:19.631Z,39.63
2019-01-04T13:00:49.138Z,35.53
2019-01-04T13:03:18.639Z,38.63
2019-01-04T13:05:48.118Z,37.77
2019-01-04T13:08:17.737Z,37.53
2019-01-04T13:10:47.316Z,37.27
2019-01-04T13:13:16.743Z,37.07
2019-01-04T13:15:46.241Z,38.20
2019-01-04T13:18:15.711Z,37.60
2019-01-04T13:20:45.153Z,42.30
2019-01-04T13:23:14.631Z,36.47
2019-01-04T13:25:44.106Z,36.27
2019-01-04T13:28:13.671Z,36.77
2019-01-04T13:30:43.111Z,40.50
2019-01-04T13:33:12.578Z,35.20
2019-01-04T13:35:42.020Z,42.73
2019-01-04T13:38:11.448Z,41.10
2019-01-04T13:40:40.966Z,45.33
2019-01-04T13:43:10.536Z,49.50
2019-01-04T13:45:40.110Z,50.83
2019-01-04T13:48:09.565Z,50.10
2019-01-04T13:50:39.064Z,54.17
2019-01-04T13:53:08.502Z,51.60
2019-01-04T13:55:38.027Z,51.90
2019-01-04T13:58:07.513Z,54.23
2019-01-04T14:00:37.048Z,50.97
2019-01-04T14:03:06.507Z,55.83
2019-01-04T14:05:36.057Z,53.43
2019-01-04T14:08:05.588Z,55.80
2019-01-04T14:10:35.165Z,53.53
2019-01-04T14:13:09.244Z,54.00
2019-01-04T14:15:35.895Z,53.80
2019-01-04T14:18:05.417Z,49.97
2019-01-04T14:20:34.883Z,55.40
2019-01-04T14:23:04.354Z,54.70
2019-01-04T14:25:33.813Z,54.87
2019-01-04T14:28:03.240Z,63.67
2019-01-04T14:30:32.716Z,57.40
2019-01-04T14:33:02.181Z,62.93
2019-01-04T14:35:31.628Z,61.03
2019-01-04T14:38:01.096Z,65.53
2019-01-04T14:40:30.582Z,64.97
2019-01-04T14:43:00.043Z,66.67
2019-01-04T14:45:29.518Z,69.90
2019-01-04T14:47:58.970Z,69.87
2019-01-04T14:50:28.422Z,70.50
2019-01-04T14:52:57.914Z,67.30
2019-01-04T14:55:27.385Z,65.67
2019-01-04T14:57:56.837Z,67.33
2019-01-04T15:00:26.363Z,69.20
2019-01-04T15:02:55.901Z,72.90
2019-01-04T15:05:25.441Z,66.07
2019-01-04T15:07:54.988Z,73.07
2019-01-04T15:10:24.463Z,64.30
2019-01-04T15:12:53.923Z,70.50
2019-01-04T15:15:23.414Z,67.13
2019-01-04T15:17:53.040Z,69.23
2019-01-04T15:20:22.674Z,67.03
2019-01-04T15:22:52.284Z,69.53
2019-01-04T15:25:21.868Z,74.43
2019-01-04T15:27:51.353Z,70.30
2019-01-04T15:30:20.828Z,69.07
2019-01-04T15:32:50.304Z,68.73
2019-01-04T15:35:19.835Z,72.07
2019-01-04T15:37:49.313Z,65.53
2019-01-04T15:40:18.746Z,72.17
2019-01-04T15:42:48.219Z,70.23
2019-01-04T15:45:17.711Z,70.30
2019-01-04T15:47:47.183Z,70.07
2019-01-04T15:50:16.721Z,73.47
2019-01-04T15:52:46.207Z,68.53
2019-01-04T15:55:15.678Z,72.93
2019-01-04T15:57:45.147Z,67.27
2019-01-04T16:00:14.720Z,72.20
2019-01-04T16:02:44.329Z,66.20
2019-01-04T16:05:13.868Z,65.00
2019-01-04T16:07:43.359Z,66.20
2019-01-04T16:10:12.888Z,67.60
2019-01-04T16:12:42.351Z,71.87
2019-01-04T16:15:12.498Z,65.73
2019-01-04T16:17:42.016Z,68.73
2019-01-04T16:20:12.534Z,67.03
2019-01-04T16:22:42.018Z,67.40
2019-01-04T16:25:11.619Z,67.23
2019-01-04T16:27:41.128Z,70.27
2019-01-04T16:30:12.202Z,65.40
2019-01-04T16:32:41.696Z,70.50
2019-01-04T16:35:11.230Z,70.37
2019-01-04T16:37:40.764Z,70.40
2019-01-04T16:40:10.346Z,70.70
2019-01-04T16:42:39.761Z,68.97
2019-01-04T16:45:09.446Z,67.87
2019-01-04T16:47:39.671Z,71.17
2019-01-04T16:50:09.743Z,67.13
2019-01-04T16:52:39.189Z,69.87
2019-01-04T16:55:09.781Z,67.17
2019-01-04T16:57:39.250Z,67.60
2019-01-04T17:00:11.670Z,69.77
2019-01-04T17:02:41.296Z,68.20
2019-01-04T17:05:10.789Z,68.07
2019-01-04T17:07:40.244Z,63.47
2019-01-04T17:10:09.891Z,63.43
2019-01-04T17:12:39.402Z,69.03
2019-01-04T17:15:09.089Z,61.00
2019-01-04T17:17:38.595Z,62.20
2019-01-04T17:20:08.308Z,64.57
2019-01-04T17:22:37.761Z,67.13
2019-01-04T17:25:08.738Z,64.77
2019-01-04T17:27:38.268Z,67.87
2019-01-04T17:30:10.249Z,64.90
2019-01-04T17:32:39.761Z,63.43
2019-01-04T17:35:09.290Z,58.63
2019-01-04T17:37:38.757Z,65.03
2019-01-04T17:40:10.130Z,64.33
2019-01-04T17:42:39.574Z,63.07
2019-01-04T17:45:09.470Z,62.33
2019-01-04T17:47:38.959Z,61.80
2019-01-04T17:50:09.271Z,66.27
2019-01-04T17:52:38.713Z,63.37
2019-01-04T17:55:08.394Z,63.00
2019-01-04T17:57:37.929Z,62.47
2019-01-04T18:00:10.383Z,62.20
2019-01-04T18:02:39.934Z,60.47
2019-01-04T18:05:09.602Z,63.03
2019-01-04T18:07:39.124Z,64.33
2019-01-04T18:10:09.821Z,59.53
2019-01-04T18:12:39.366Z,57.57
2019-01-04T18:15:09.272Z,61.43
2019-01-04T18:17:38.760Z,59.87
2019-01-04T18:20:10.910Z,61.40
2019-01-04T18:22:40.571Z,57.97
2019-01-04T18:27:38.727Z,55.30
2019-01-04T18:30:10.421Z,59.87
2019-01-04T18:32:39.897Z,53.67
2019-01-04T18:35:09.563Z,55.73
2019-01-04T18:37:39.032Z,51.30
2019-01-04T18:40:10.272Z,52.53
2019-01-04T18:42:39.819Z,55.70
2019-01-04T18:45:09.466Z,59.30
2019-01-04T18:47:39.691Z,54.10
2019-01-04T18:50:12.531Z,59.03
2019-01-04T18:52:42.049Z,55.43
2019-01-04T18:55:11.541Z,55.67
2019-01-04T18:57:41.205Z,51.33
2019-01-04T19:00:12.075Z,51.30
2019-01-04T19:02:41.544Z,55.63
2019-01-04T19:05:11.198Z,59.07
2019-01-04T19:07:40.612Z,50.27
2019-01-04T19:10:10.742Z,54.20
2019-01-04T19:12:40.223Z,53.50
2019-01-04T19:15:11.363Z,51.17
2019-01-04T19:17:40.811Z,50.73
2019-01-04T19:20:10.278Z,49.80
2019-01-04T19:22:39.721Z,52.60
2019-01-04T19:25:09.384Z,51.90
2019-01-04T19:27:38.856Z,56.13
2019-01-04T19:30:09.784Z,56.43
2019-01-04T19:32:39.373Z,50.00
2019-01-04T19:35:08.954Z,52.63
2019-01-04T19:37:38.496Z,53.70
2019-01-04T19:40:08.739Z,54.97
2019-01-04T19:42:38.225Z,55.13
2019-01-04T19:45:08.292Z,49.77
2019-01-04T19:47:37.856Z,48.00
2019-01-04T19:50:17.703Z,50.80
2019-01-04T19:52:47.199Z,46.50
2019-01-04T19:55:16.823Z,57.07
2019-01-04T19:57:47.140Z,51.43
2019-01-04T20:00:16.840Z,51.97
2019-01-04T20:02:46.362Z,55.10
2019-01-04T20:05:17.960Z,54.07
2019-01-04T20:08:05.273Z,49.17
2019-01-04T20:11:18.149Z,53.50
2019-01-04T20:14:33.269Z,58.23
2019-01-04T20:17:20.571Z,54.30
2019-01-04T20:19:51.734Z,55.03
2019-01-04T20:22:22.857Z,56.20
2019-01-04T20:25:10.267Z,50.63
2019-01-04T20:27:47.400Z,52.93
2019-01-04T20:30:30.770Z,55.07
2019-01-04T20:33:15.066Z,53.17
2019-01-04T20:36:04.417Z,55.60
2019-01-04T20:38:35.528Z,56.77
2019-01-04T20:41:24.353Z,54.13
2019-01-04T20:44:04.298Z,59.03
2019-01-04T20:46:51.462Z,50.30
2019-01-04T20:49:37.416Z,50.07
2019-01-04T20:52:26.419Z,57.57
2019-01-04T20:55:09.553Z,52.80
2019-01-04T20:57:40.679Z,52.70
2019-01-04T21:00:14.706Z,49.93
2019-01-04T21:02:48.512Z,57.93
2019-01-04T21:05:25.328Z,50.90
2019-01-04T21:08:08.421Z,56.17
2019-01-04T21:10:45.409Z,52.83
2019-01-04T21:13:19.133Z,53.37
2019-01-04T21:15:50.217Z,53.53
2019-01-04T21:18:24.135Z,51.20
2019-01-04T21:21:07.470Z,55.73
2019-01-04T21:23:41.289Z,54.40
2019-01-04T21:26:18.113Z,54.73
2019-01-04T21:28:52.147Z,51.27
2019-01-04T21:31:32.182Z,54.50
2019-01-04T21:34:06.123Z,54.00
2019-01-04T21:36:37.227Z,55.07
2019-01-04T21:39:10.114Z,51.63
2019-01-04T21:41:57.294Z,59.87
2019-01-04T21:44:33.887Z,51.90
2019-01-04T21:47:07.590Z,55.57
2019-01-04T21:49:41.402Z,53.63
2019-01-04T21:52:12.604Z,54.23
2019-01-04T21:54:59.949Z,54.70
2019-01-04T21:57:47.038Z,55.13
2019-01-04T22:00:26.700Z,54.30
2019-01-04T22:02:57.817Z,55.77
2019-01-04T22:05:45.398Z,54.90
2019-01-04T22:08:31.286Z,55.20
2019-01-04T22:11:18.695Z,51.97
2019-01-04T22:13:58.878Z,51.63
2019-01-04T22:16:44.917Z,52.33
2019-01-04T22:19:18.963Z,50.67
2019-01-04T22:22:06.199Z,51.27
2019-01-04T22:24:40.069Z,52.00
2019-01-04T22:27:29.372Z,53.10
2019-01-04T22:30:06.033Z,49.10
2019-01-04T22:32:54.712Z,51.10
2019-01-04T22:35:25.830Z,49.80
2019-01-04T22:38:08.618Z,47.90
2019-01-04T22:40:54.739Z,45.33
2019-01-04T22:43:42.353Z,51.00
2019-01-04T22:46:16.200Z,53.13
2019-01-04T22:48:47.319Z,52.30
2019-01-04T22:51:34.272Z,48.50
2019-01-04T22:54:17.212Z,49.90
2019-01-04T22:57:04.182Z,42.70
2019-01-04T22:59:41.514Z,49.13
2019-01-04T23:02:24.476Z,46.93
2019-01-04T23:05:11.713Z,45.07
2019-01-04T23:07:55.038Z,40.23
2019-01-04T23:10:29.130Z,42.67
2019-01-04T23:13:00.244Z,45.03
2019-01-04T23:15:37.487Z,42.83
2019-01-04T23:18:25.046Z,45.13
2019-01-04T23:21:14.471Z,41.80
2019-01-04T23:24:00.580Z,41.90
2019-01-04T23:26:47.858Z,36.97
2019-01-04T23:29:19.037Z,41.83
2019-01-04T23:31:52.952Z,40.70
2019-01-04T23:34:39.931Z,40.13
2019-01-04T23:37:27.322Z,41.83
2019-01-04T23:39:58.427Z,42.03
2019-01-04T23:42:41.563Z,43.77
2019-01-04T23:45:28.811Z,45.43
2019-01-04T23:48:02.674Z,42.93
2019-01-04T23:50:46.068Z,37.97
2019-01-04T23:53:32.238Z,42.93
2019-01-04T23:56:19.640Z,39.37
2019-01-04T23:59:06.740Z,39.60
